Latest Weather Observations for West Wyalong

IDN60801

Issued at 11:32 am EDT Tuesday 17 January 2017 (issued every 30 minutes, with the page automatically refreshed every 10 minutes)

About weather observations | Map of weather stations | Latest weather observations for NSW | Other Formats
Station Details ID: 050017 Name: WEST WYALONG AIRPORT AWS Lat: -33.94 Lon: 147.20 Height: 257.0 m
Data from the previous 72 hours. | See also: Recent months at West Wyalong
Date/Time
EDT
Temp
°C
App
Temp
°C
Dew
Point
°C
Rel
Hum
%
Delta-T
°C
Wind Press
QNH
hPa
Press
MSL
hPa
Rain since
9am
mm
Dir  Spd
km/h
Gust
km/h
Spd
kts
Gust
kts
17/11:30am 38.7 36.9 16.9 27 14.2 NW 22 37 12 20 1011.8 1010.3 0.0
17/11:00am 37.2 34.2 16.7 29 13.3 NNW 28 41 15 22 1012.2 1010.8 0.0
17/10:30am 36.5 34.7 16.1 29 13.1 NNW 20 32 11 17 1012.6 1011.2 0.0
17/10:00am 35.6 33.5 15.3 29 12.8 N 20 32 11 17 1013.0 1011.5 0.0
17/09:30am 34.4 31.6 14.3 30 12.5 N 22 35 12 19 1012.8 1011.4 0.0
17/09:00am 32.5 30.5 11.6 28 12.4 N 13 17 7 9 1013.2 1011.7 0.0
17/08:30am 29.5 27.0 9.6 29 11.3 N 13 17 7 9 1013.4 1011.9 0.0
17/08:00am 27.6 25.7 9.0 31 10.3 NNE 9 13 5 7 1013.4 1011.9 0.0
17/07:30am 25.2 23.4 7.8 33 9.4 NW 7 11 4 6 1013.2 1011.7 0.0
17/07:00am 21.5 19.8 8.4 43 7.0 N 7 9 4 5 1012.8 1011.4 0.0
17/06:30am 19.3 17.8 8.3 49 5.8 W 6 7 3 4 1012.6 1011.2 0.0
17/06:00am 19.2 17.7 8.5 50 5.6 NE 6 11 3 6 1012.5 1011.1 0.0
17/05:30am 18.4 18.0 8.4 52 5.2 CALM 0 0 0 0 1011.7 1010.2 0.0
17/05:00am 19.4 19.0 8.1 48 5.9 CALM 0 0 0 0 1011.4 1009.9 0.0
17/04:30am 19.6 19.1 7.7 46 6.2 CALM 0 0 0 0 1011.3 1009.8 0.0
17/04:00am 19.5 18.3 8.2 48 5.9 S 4 11 2 6 1011.3 1009.8 0.0
17/03:30am 19.2 18.6 7.6 47 6.0 CALM 0 0 0 0 1011.6 1010.1 0.0
17/03:00am 19.7 19.2 7.8 46 6.2 CALM 0 0 0 0 1011.9 1010.4 0.0
17/02:30am 20.1 19.6 7.8 45 6.4 CALM 0 0 0 0 1011.9 1010.4 0.0
17/02:00am 19.7 19.1 7.4 45 6.4 CALM 0 0 0 0 1011.9 1010.4 0.0
17/01:30am 20.5 20.0 7.8 44 6.6 CALM 0 0 0 0 1012.1 1010.7 0.0
17/01:00am 20.8 19.4 7.4 42 7.0 WSW 4 6 2 3 1012.4 1011.0 0.0
17/12:30am 22.3 20.4 7.7 39 7.7 SW 7 9 4 5 1012.6 1011.2 0.0
17/12:00am 22.2 20.5 7.6 39 7.7 SW 6 7 3 4 1012.7 1011.3 0.0
 
Date/Time
EDT
Temp
°C
App
Temp
°C
Dew
Point
°C
Rel
Hum
%
Delta-T
°C
Wind Press
QNH
hPa
Press
MSL
hPa
Rain since
9am
mm
Dir  Spd
km/h
Gust
km/h
Spd
kts
Gust
kts
16/11:30pm 23.5 21.6 6.7 34 8.8 WSW 6 7 3 4 1013.0 1011.5 0.0
16/11:00pm 24.3 22.4 6.6 32 9.3 SSE 6 7 3 4 1012.8 1011.4 0.0
16/10:30pm 25.8 24.5 5.9 28 10.4 SSW 2 6 1 3 1012.8 1011.4 0.0
16/10:00pm 27.3 25.5 5.6 25 11.4 W 4 9 2 5 1012.7 1011.3 0.0
16/09:30pm 27.7 25.2 4.7 23 11.9 SE 7 13 4 7 1012.4 1011.0 0.0
16/09:00pm 31.6 28.9 2.7 16 14.8 ENE 6 7 3 4 1012.2 1010.8 0.0
16/08:30pm 32.2 29.6 3.2 16 15.0 ENE 6 7 3 4 1012.0 1010.5 0.0
16/08:00pm 35.6 32.8 1.8 12 17.5 NNE 6 9 3 5 1011.6 1010.1 0.0
16/07:30pm 36.3 33.2 1.2 11 18.0 N 7 13 4 7 1011.4 1009.9 0.0
16/07:00pm 36.9 33.6 -1.1 9 18.9 NNW 6 13 3 7 1011.1 1009.6 0.0
16/06:30pm 37.2 34.6 3.1 12 18.1 E 6 9 3 5 1010.9 1009.4 0.0
16/06:00pm 37.5 34.5 2.1 11 18.6 NE 7 15 4 8 1010.9 1009.4 0.0
16/05:30pm 37.6 33.5 2.1 11 18.6 N 13 22 7 12 1011.2 1009.7 0.0
16/05:00pm 37.0 33.2 1.7 11 18.3 N 11 17 6 9 1011.3 1009.8 0.0
16/04:30pm 37.2 34.2 4.2 13 17.8 SSE 9 17 5 9 1011.5 1010.0 0.0
16/04:00pm 37.7 35.0 5.6 14 17.8 N 9 20 5 11 1011.8 1010.3 0.0
16/03:30pm 36.8 34.7 5.9 15 17.1 SW 6 13 3 7 1012.1 1010.7 0.0
16/03:00pm 36.0 33.2 7.1 17 16.2 NNE 11 19 6 10 1012.5 1011.1 0.0
16/02:30pm 36.2 33.5 7.3 17 16.3 E 11 17 6 9 1012.8 1011.4 0.0
16/02:00pm 34.5 31.5 5.9 17 15.7 NE 11 19 6 10 1013.5 1012.0 0.0
16/01:30pm 34.3 31.4 6.6 18 15.3 NNW 11 20 6 11 1014.0 1012.5 0.0
16/01:00pm 32.8 29.8 7.6 21 14.0 WSW 13 19 7 10 1014.2 1012.7 0.0
16/12:30pm 33.3 31.1 9.4 23 13.7 NW 11 20 6 11 1014.6 1013.1 0.0
16/12:00pm 32.1 29.4 10.2 26 12.7 N 15 26 8 14 1015.0 1013.5 0.0
16/11:30am 30.6 28.2 11.5 30 11.2 NNE 15 24 8 13 1015.3 1013.8 0.0
16/11:00am 29.7 28.0 12.6 35 10.2 NNE 13 20 7 11 1015.5 1014.0 0.0
16/10:30am 28.9 27.4 13.2 38 9.4 NNE 13 20 7 11 1015.7 1014.3 0.0
16/10:00am 27.5 26.1 13.4 41 8.4 NNE 13 19 7 10 1016.0 1014.6 0.0
16/09:30am 27.1 25.1 13.8 44 8.0 NNE 17 20 9 11 1016.1 1014.7 0.0
16/09:00am 25.7 23.3 13.9 48 7.0 NNE 19 30 10 16 1016.1 1014.7 0.0
16/08:30am 23.8 22.1 13.6 52 6.0 N 15 20 8 11 1016.0 1014.6 0.0
16/08:00am 21.7 20.4 12.5 56 5.3 N 11 15 6 8 1015.8 1014.4 0.0
16/07:30am 19.1 18.8 13.3 69 3.3 NNE 7 11 4 6 1015.8 1014.4 0.0
16/07:00am 16.3 16.4 12.8 80 2.0 NE 4 6 2 3 1015.6 1014.2 0.0
16/06:30am 13.9 14.0 10.3 79 1.9 CALM 0 0 0 0 1015.3 1013.8 0.0
16/06:00am 14.2 14.3 10.0 76 2.2 CALM 0 0 0 0 1014.9 1013.4 0.0
16/05:30am 14.4 14.4 9.8 74 2.4 CALM 0 0 0 0 1014.6 1013.1 0.0
16/05:00am 15.2 14.4 9.6 69 2.9 SE 4 6 2 3 1014.2 1012.7 0.0
16/04:30am 15.6 15.0 8.8 64 3.5 SSE 2 6 1 3 1014.0 1012.5 0.0
16/04:00am 15.7 14.0 7.5 58 4.1 S 6 9 3 5 1014.0 1012.5 0.0
16/03:30am 15.2 14.2 5.7 53 4.6 CALM 0 0 0 0 1013.9 1012.4 0.0
16/03:00am 16.7 13.9 5.3 47 5.5 SE 9 11 5 6 1013.9 1012.4 0.0
16/02:30am 18.1 15.0 3.6 38 6.9 SE 9 11 5 6 1014.0 1012.5 0.0
16/02:00am 18.8 16.0 3.0 35 7.4 SSE 7 11 4 6 1014.3 1012.8 0.0
16/01:30am 20.8 17.5 2.6 30 8.6 S 9 11 5 6 1014.2 1012.7 0.0
16/01:00am 22.0 17.6 2.7 28 9.3 SSW 15 19 8 10 1014.2 1012.7 0.0
16/12:30am 22.1 18.5 2.8 28 9.3 SSW 11 17 6 9 1014.2 1012.7 0.0
16/12:00am 21.2 17.9 2.5 29 8.9 SW 9 15 5 8 1014.3 1012.8 0.0
 
Date/Time
EDT
Temp
°C
App
Temp
°C
Dew
Point
°C
Rel
Hum
%
Delta-T
°C
Wind Press
QNH
hPa
Press
MSL
hPa
Rain since
9am
mm
Dir  Spd
km/h
Gust
km/h
Spd
kts
Gust
kts
15/11:30pm 21.4 17.6 1.7 27 9.2 SW 11 13 6 7 1014.2 1012.7 0.0
15/11:00pm 22.0 18.5 1.1 25 9.7 SW 9 13 5 7 1014.1 1012.6 0.0
15/10:30pm 22.5 18.9 0.9 24 10.0 SW 9 13 5 7 1014.1 1012.6 0.0
15/10:00pm 23.0 19.0 0.2 22 10.5 SW 11 13 6 7 1013.9 1012.4 0.0
15/09:30pm 23.6 19.5 0.0 21 10.9 SW 11 11 6 6 1013.7 1012.2 0.0
15/09:00pm 24.1 20.4 -0.2 20 11.2 SW 9 11 5 6 1013.6 1012.1 0.0
15/08:30pm 26.8 22.5 -2.0 15 13.1 SSW 11 15 6 8 1013.5 1012.0 0.0
15/08:00pm 29.6 24.0 -2.8 12 14.9 SSW 17 22 9 12 1013.3 1011.8 0.0
15/07:30pm 31.1 25.9 -2.8 11 15.7 S 15 22 8 12 1013.2 1011.7 0.0
15/07:00pm 31.6 25.5 -3.7 10 16.2 S 19 26 10 14 1013.0 1011.5 0.0
15/06:30pm 32.3 26.5 -4.6 9 16.8 SSW 17 24 9 13 1013.0 1011.5 0.0
15/06:00pm 32.7 27.5 -2.9 10 16.7 S 15 24 8 13 1012.7 1011.3 0.0
15/05:30pm 32.6 26.4 -2.9 10 16.6 SSE 20 26 11 14 1012.7 1011.3 0.0
15/05:00pm 33.2 27.5 -3.9 9 17.2 S 17 28 9 15 1012.8 1011.4 0.0
15/04:30pm 32.8 26.6 -2.8 10 16.7 SSE 20 32 11 17 1013.2 1011.7 0.0
15/04:00pm 32.2 26.3 -2.0 11 16.2 S 19 30 10 16 1013.6 1012.1 0.0
15/03:30pm 31.8 26.4 -1.1 12 15.8 SSE 17 26 9 14 1013.8 1012.3 0.0
15/03:00pm 31.1 25.3 -1.6 12 15.5 SSW 19 26 10 14 1014.2 1012.7 0.0
15/02:30pm 31.2 25.9 -0.5 13 15.3 S 17 28 9 15 1014.4 1012.9 0.0
15/02:00pm 29.5 24.5 1.1 16 13.9 SSW 17 26 9 14 1014.8 1013.3 0.0
15/01:30pm 29.3 24.0 1.7 17 13.7 SSW 19 33 10 18 1015.3 1013.8 0.0
15/01:00pm 28.5 23.1 2.7 19 12.9 SSW 20 30 11 16 1015.6 1014.2 0.0
15/12:30pm 27.4 22.4 3.8 22 12.0 SSW 19 28 10 15 1015.8 1014.4 0.0
15/12:00pm 26.9 22.6 5.2 25 11.2 S 17 26 9 14 1015.9 1014.5 0.0
15/11:30am 25.6 22.0 6.8 30 10.0 SSE 15 24 8 13 1016.1 1014.7 0.0
15/11:00am 24.2 19.9 6.9 33 9.1 S 19 26 10 14 1016.4 1015.0 0.0
15/10:30am 24.0 19.9 8.0 36 8.6 S 19 28 10 15 1016.5 1015.1 0.0
15/10:00am 22.9 18.8 8.6 40 7.7 SSE 20 26 11 14 1016.5 1015.1 0.0
15/09:30am 22.2 18.2 9.0 43 7.1 S 20 30 11 16 1016.6 1015.2 0.0
15/09:00am 21.4 17.7 9.3 46 6.5 SSE 19 26 10 14 1016.4 1015.0 0.0
15/08:30am 19.9 15.5 8.9 49 5.9 S 22 32 12 17 1016.2 1014.8 0.0
15/08:00am 18.8 14.7 8.7 52 5.3 S 20 28 11 15 1015.8 1014.4 0.0
15/07:30am 17.3 13.5 9.2 59 4.3 S 19 26 10 14 1015.5 1014.0 0.0
15/07:00am 15.1 13.0 9.7 70 2.8 SW 11 15 6 8 1015.2 1013.7 0.0
15/06:30am 13.8 11.2 9.5 75 2.2 SW 13 15 7 8 1014.7 1013.2 0.0
15/06:00am 14.1 11.4 8.9 71 2.7 SW 13 17 7 9 1014.1 1012.6 0.0
15/05:30am 14.2 11.1 9.0 71 2.7 SW 15 17 8 9 1013.8 1012.3 0.0
15/05:00am 13.9 12.0 8.9 72 2.6 WSW 9 13 5 7 1013.7 1012.2 0.0
15/04:30am 14.6 11.9 9.0 69 2.9 SW 13 15 7 8 1013.6 1012.1 0.0
15/04:00am 14.9 12.6 9.1 68 3.0 WSW 11 13 6 7 1013.6 1012.1 0.0
15/03:30am 15.1 12.8 9.0 67 3.2 SW 11 13 6 7 1013.7 1012.2 0.0
15/03:00am 15.4 13.2 9.3 67 3.2 SW 11 13 6 7 1013.8 1012.3 0.0
15/02:30am 14.9 13.5 8.8 67 3.1 SW 6 7 3 4 1014.1 1012.6 0.0
15/02:00am 15.8 14.4 8.8 63 3.6 SW 6 7 3 4 1014.4 1012.9 0.0
15/01:30am 16.3 14.8 9.0 62 3.8 SW 7 11 4 6 1014.4 1012.9 0.0
15/01:00am 16.8 14.8 8.8 59 4.2 SSW 9 11 5 6 1014.4 1012.9 0.0
15/12:30am 17.3 15.8 8.4 56 4.6 SSW 6 9 3 5 1014.4 1012.9 0.0
15/12:00am 18.2 16.2 8.5 53 5.1 S 9 13 5 7 1014.4 1012.9 0.0
 
Date/Time
EDT
Temp
°C
App
Temp
°C
Dew
Point
°C
Rel
Hum
%
Delta-T
°C
Wind Press
QNH
hPa
Press
MSL
hPa
Rain since
9am
mm
Dir  Spd
km/h
Gust
km/h
Spd
kts
Gust
kts
14/11:30pm 19.6 17.1 8.3 48 5.9 SSW 11 17 6 9 1014.1 1012.6 0.0
14/11:00pm 20.1 17.2 8.1 46 6.3 SSW 13 17 7 9 1013.8 1012.3 0.0
14/10:30pm 21.1 17.4 8.0 43 6.9 SSW 17 20 9 11 1013.5 1012.0 0.0
14/10:00pm 21.7 18.4 8.2 42 7.2 SSW 15 20 8 11 1013.0 1011.5 0.0
14/09:30pm 22.4 18.7 7.8 39 7.7 SSW 17 26 9 14 1012.3 1010.9 0.0
14/09:00pm 23.1 18.9 7.6 37 8.2 SSW 19 26 10 14 1011.7 1010.2 0.0
14/08:30pm 23.9 19.4 7.1 34 8.9 SSW 20 28 11 15 1011.3 1009.8 0.0
14/08:00pm 25.0 18.9 6.7 31 9.6 SW 28 37 15 20 1010.8 1009.3 0.0
14/07:30pm 25.9 20.4 6.0 28 10.4 SW 24 35 13 19 1010.3 1008.8 0.0
14/07:00pm 26.4 19.3 5.4 26 10.9 SW 32 43 17 23 1010.2 1008.7 0.0
14/06:30pm 27.4 21.3 6.8 27 11.0 SW 28 35 15 19 1009.9 1008.4 0.0
14/06:00pm 28.1 21.4 5.6 24 11.9 WSW 30 43 16 23 1010.0 1008.5 0.0
14/05:30pm 27.7 22.2 7.5 28 10.9 SW 26 41 14 22 1010.0 1008.5 0.0
14/05:00pm 27.5 21.8 8.4 30 10.5 SW 28 39 15 21 1010.2 1008.7 0.0
14/04:30pm 27.7 21.6 8.1 29 10.7 WSW 30 63 16 34 1010.4 1008.9 0.0
14/04:13pm 27.7 21.9 8.1 29 10.7 WSW 28 46 15 25 1010.5 1009.0 0.0
14/04:00pm 28.1 23.2 8.4 29 10.9 SW 24 37 13 20 1010.6 1009.1 0.0
14/03:30pm 27.5 21.6 7.4 28 10.9 WSW 28 37 15 20 1010.5 1009.0 0.0
14/03:00pm 27.5 22.7 7.4 28 10.9 WSW 22 39 12 21 1010.5 1009.0 0.0
14/02:30pm 26.8 22.2 8.3 31 10.1 WSW 22 33 12 18 1010.6 1009.1 0.0
14/02:00pm 26.5 21.6 8.5 32 9.9 SW 24 35 13 19 1010.6 1009.1 0.0
14/01:30pm 25.8 21.2 9.6 36 9.0 WSW 24 37 13 20 1010.8 1009.3 0.0
14/01:00pm 24.8 19.8 9.5 38 8.5 SW 26 32 14 17 1010.8 1009.3 0.0
14/12:30pm 24.6 20.0 9.7 39 8.3 SW 24 35 13 19 1010.9 1009.4 0.0
14/12:00pm 23.5 19.5 10.6 44 7.2 WSW 22 33 12 18 1010.8 1009.3 0.0

Other Formats:

Comma delimited format used in spreadsheet applications
http://www.bom.gov.au/fwo/IDN60801/IDN60801.95709.axf

JavaScript Object Notation format (JSON) in row-major order
http://www.bom.gov.au/fwo/IDN60801/IDN60801.95709.json